sensor_id;sensor_type;location;lat;lon;timestamp;temperature;humidity
29813;DHT22;16707;48.106;11.548;2022-07-21T00:00:55;21.20;99.90
29813;DHT22;16707;48.106;11.548;2022-07-21T00:03:22;21.10;99.90
29813;DHT22;16707;48.106;11.548;2022-07-21T00:05:49;21.10;99.90
29813;DHT22;16707;48.106;11.548;2022-07-21T00:08:26;21.10;99.90
29813;DHT22;16707;48.106;11.548;2022-07-21T00:10:56;21.00;99.90
29813;DHT22;16707;48.106;11.548;2022-07-21T00:13:26;20.80;99.90
29813;DHT22;16707;48.106;11.548;2022-07-21T00:15:55;20.70;99.90
29813;DHT22;16707;48.106;11.548;2022-07-21T00:18:26;20.70;99.90
29813;DHT22;16707;48.106;11.548;2022-07-21T00:21:10;20.60;99.90
29813;DHT22;16707;48.106;11.548;2022-07-21T00:23:40;20.60;99.90
29813;DHT22;16707;48.106;11.548;2022-07-21T00:26:11;20.30;99.90
29813;DHT22;16707;48.106;11.548;2022-07-21T00:28:55;20.20;99.90
29813;DHT22;16707;48.106;11.548;2022-07-21T00:31:22;20.10;99.90
29813;DHT22;16707;48.106;11.548;2022-07-21T00:33:49;20.10;99.90
29813;DHT22;16707;48.106;11.548;2022-07-21T00:36:27;20.10;99.90
29813;DHT22;16707;48.106;11.548;2022-07-21T00:39:01;20.10;99.90
29813;DHT22;16707;48.106;11.548;2022-07-21T00:41:31;20.10;99.90
29813;DHT22;16707;48.106;11.548;2022-07-21T00:44:18;20.10;99.90
29813;DHT22;16707;48.106;11.548;2022-07-21T00:46:50;20.00;99.90
29813;DHT22;16707;48.106;11.548;2022-07-21T00:49:17;20.00;99.90
29813;DHT22;16707;48.106;11.548;2022-07-21T00:51:48;20.30;99.90
29813;DHT22;16707;48.106;11.548;2022-07-21T00:54:17;20.50;99.90
29813;DHT22;16707;48.106;11.548;2022-07-21T00:56:46;20.50;99.90
29813;DHT22;16707;48.106;11.548;2022-07-21T00:59:15;20.40;99.90
29813;DHT22;16707;48.106;11.548;2022-07-21T01:01:45;20.30;99.90
29813;DHT22;16707;48.106;11.548;2022-07-21T01:04:26;20.20;99.90
29813;DHT22;16707;48.106;11.548;2022-07-21T01:06:59;20.10;99.90
29813;DHT22;16707;48.106;11.548;2022-07-21T01:09:34;20.20;99.90
29813;DHT22;16707;48.106;11.548;2022-07-21T01:12:03;20.20;99.90
29813;DHT22;16707;48.106;11.548;2022-07-21T01:14:36;20.10;99.90
29813;DHT22;16707;48.106;11.548;2022-07-21T01:17:10;20.00;99.90
29813;DHT22;16707;48.106;11.548;2022-07-21T01:19:43;19.90;99.90
29813;DHT22;16707;48.106;11.548;2022-07-21T01:22:12;19.80;99.90
29813;DHT22;16707;48.106;11.548;2022-07-21T01:24:39;19.70;99.90
29813;DHT22;16707;48.106;11.548;2022-07-21T01:27:09;19.70;99.90
29813;DHT22;16707;48.106;11.548;2022-07-21T01:29:45;19.80;99.90
29813;DHT22;16707;48.106;11.548;2022-07-21T01:32:15;19.80;99.90
29813;DHT22;16707;48.106;11.548;2022-07-21T01:34:42;19.70;99.90
29813;DHT22;16707;48.106;11.548;2022-07-21T01:37:11;19.80;99.90
29813;DHT22;16707;48.106;11.548;2022-07-21T01:39:40;19.80;99.90
29813;DHT22;16707;48.106;11.548;2022-07-21T01:42:25;19.70;99.90
29813;DHT22;16707;48.106;11.548;2022-07-21T01:44:56;19.70;99.90
29813;DHT22;16707;48.106;11.548;2022-07-21T01:47:24;19.70;99.90
29813;DHT22;16707;48.106;11.548;2022-07-21T01:49:52;19.60;99.90
29813;DHT22;16707;48.106;11.548;2022-07-21T01:52:20;19.60;99.90
29813;DHT22;16707;48.106;11.548;2022-07-21T01:54:48;19.50;99.90
29813;DHT22;16707;48.106;11.548;2022-07-21T01:57:18;19.50;99.90
29813;DHT22;16707;48.106;11.548;2022-07-21T01:59:45;19.40;99.90
29813;DHT22;16707;48.106;11.548;2022-07-21T02:02:21;19.40;99.90
29813;DHT22;16707;48.106;11.548;2022-07-21T02:04:51;19.40;99.90
29813;DHT22;16707;48.106;11.548;2022-07-21T02:07:20;19.40;99.90
29813;DHT22;16707;48.106;11.548;2022-07-21T02:09:47;19.60;99.90
29813;DHT22;16707;48.106;11.548;2022-07-21T02:12:18;19.70;99.90
29813;DHT22;16707;48.106;11.548;2022-07-21T02:14:45;19.70;99.90
29813;DHT22;16707;48.106;11.548;2022-07-21T02:17:12;19.70;99.90
29813;DHT22;16707;48.106;11.548;2022-07-21T02:19:42;19.70;99.90
29813;DHT22;16707;48.106;11.548;2022-07-21T02:22:12;19.60;99.90
29813;DHT22;16707;48.106;11.548;2022-07-21T02:24:41;19.70;99.90
29813;DHT22;16707;48.106;11.548;2022-07-21T02:27:11;19.70;99.90
29813;DHT22;16707;48.106;11.548;2022-07-21T02:29:39;19.80;99.90
29813;DHT22;16707;48.106;11.548;2022-07-21T02:32:15;19.80;99.90
29813;DHT22;16707;48.106;11.548;2022-07-21T02:34:47;19.90;99.90
29813;DHT22;16707;48.106;11.548;2022-07-21T02:37:15;19.90;99.90
29813;DHT22;16707;48.106;11.548;2022-07-21T02:39:46;19.80;99.90
29813;DHT22;16707;48.106;11.548;2022-07-21T02:42:14;19.80;99.90
29813;DHT22;16707;48.106;11.548;2022-07-21T02:44:41;19.80;99.90
29813;DHT22;16707;48.106;11.548;2022-07-21T02:47:11;19.80;99.90
29813;DHT22;16707;48.106;11.548;2022-07-21T02:49:42;19.80;99.90
29813;DHT22;16707;48.106;11.548;2022-07-21T02:52:10;19.80;99.90
29813;DHT22;16707;48.106;11.548;2022-07-21T02:54:37;19.80;99.90
29813;DHT22;16707;48.106;11.548;2022-07-21T02:57:09;19.70;99.90
29813;DHT22;16707;48.106;11.548;2022-07-21T02:59:36;19.80;99.90
29813;DHT22;16707;48.106;11.548;2022-07-21T03:02:04;20.00;99.90
29813;DHT22;16707;48.106;11.548;2022-07-21T03:04:37;20.00;99.90
29813;DHT22;16707;48.106;11.548;2022-07-21T03:07:05;19.90;99.90
29813;DHT22;16707;48.106;11.548;2022-07-21T03:09:32;19.80;99.90
29813;DHT22;16707;48.106;11.548;2022-07-21T03:12:00;19.80;99.90
29813;DHT22;16707;48.106;11.548;2022-07-21T03:14:35;19.80;99.90
29813;DHT22;16707;48.106;11.548;2022-07-21T03:17:05;19.80;99.90
29813;DHT22;16707;48.106;11.548;2022-07-21T03:19:32;19.70;99.90
29813;DHT22;16707;48.106;11.548;2022-07-21T03:22:02;19.80;99.90
29813;DHT22;16707;48.106;11.548;2022-07-21T03:24:39;19.70;99.90
29813;DHT22;16707;48.106;11.548;2022-07-21T03:27:06;19.70;99.90
29813;DHT22;16707;48.106;11.548;2022-07-21T03:29:35;19.70;99.90
29813;DHT22;16707;48.106;11.548;2022-07-21T03:32:05;19.70;99.90
29813;DHT22;16707;48.106;11.548;2022-07-21T03:34:36;19.70;99.90
29813;DHT22;16707;48.106;11.548;2022-07-21T03:37:04;19.70;99.90
29813;DHT22;16707;48.106;11.548;2022-07-21T03:39:31;19.70;99.90
29813;DHT22;16707;48.106;11.548;2022-07-21T03:41:59;19.80;99.90
29813;DHT22;16707;48.106;11.548;2022-07-21T03:44:26;19.80;99.90
29813;DHT22;16707;48.106;11.548;2022-07-21T03:46:55;19.90;99.90
29813;DHT22;16707;48.106;11.548;2022-07-21T03:49:29;19.90;99.90
29813;DHT22;16707;48.106;11.548;2022-07-21T03:51:59;19.90;99.90
29813;DHT22;16707;48.106;11.548;2022-07-21T03:54:31;20.00;99.90
29813;DHT22;16707;48.106;11.548;2022-07-21T03:56:58;20.00;99.90
29813;DHT22;16707;48.106;11.548;2022-07-21T03:59:25;20.00;99.90
29813;DHT22;16707;48.106;11.548;2022-07-21T04:01:57;20.00;99.90
29813;DHT22;16707;48.106;11.548;2022-07-21T04:04:27;20.00;99.90
29813;DHT22;16707;48.106;11.548;2022-07-21T04:06:57;20.10;99.90
29813;DHT22;16707;48.106;11.548;2022-07-21T04:09:31;20.10;99.90
29813;DHT22;16707;48.106;11.548;2022-07-21T04:11:58;20.10;99.90
29813;DHT22;16707;48.106;11.548;2022-07-21T04:14:31;20.20;99.90
29813;DHT22;16707;48.106;11.548;2022-07-21T04:17:03;20.10;99.90
29813;DHT22;16707;48.106;11.548;2022-07-21T04:19:30;20.10;99.90
29813;DHT22;16707;48.106;11.548;2022-07-21T04:21:58;20.00;99.90
29813;DHT22;16707;48.106;11.548;2022-07-21T04:24:28;20.00;99.90
29813;DHT22;16707;48.106;11.548;2022-07-21T04:27:07;20.00;99.90
29813;DHT22;16707;48.106;11.548;2022-07-21T04:29:37;20.00;99.90
29813;DHT22;16707;48.106;11.548;2022-07-21T04:32:14;20.00;99.90
29813;DHT22;16707;48.106;11.548;2022-07-21T04:34:41;20.10;99.90
29813;DHT22;16707;48.106;11.548;2022-07-21T04:37:11;20.10;99.90
29813;DHT22;16707;48.106;11.548;2022-07-21T04:39:42;20.30;99.90
29813;DHT22;16707;48.106;11.548;2022-07-21T04:42:15;20.40;99.90
29813;DHT22;16707;48.106;11.548;2022-07-21T04:44:43;20.40;99.90
29813;DHT22;16707;48.106;11.548;2022-07-21T04:47:11;20.50;99.90
29813;DHT22;16707;48.106;11.548;2022-07-21T04:49:39;20.40;99.90
29813;DHT22;16707;48.106;11.548;2022-07-21T04:52:09;20.30;99.90
29813;DHT22;16707;48.106;11.548;2022-07-21T04:54:36;20.20;99.90
29813;DHT22;16707;48.106;11.548;2022-07-21T04:57:04;20.20;99.90
29813;DHT22;16707;48.106;11.548;2022-07-21T04:59:33;20.20;99.90
29813;DHT22;16707;48.106;11.548;2022-07-21T05:02:02;20.30;99.90
29813;DHT22;16707;48.106;11.548;2022-07-21T05:04:35;20.40;99.90
29813;DHT22;16707;48.106;11.548;2022-07-21T05:07:02;20.30;99.90
29813;DHT22;16707;48.106;11.548;2022-07-21T05:09:31;20.20;99.90
29813;DHT22;16707;48.106;11.548;2022-07-21T05:11:59;20.30;99.90
29813;DHT22;16707;48.106;11.548;2022-07-21T05:14:32;20.30;99.90
29813;DHT22;16707;48.106;11.548;2022-07-21T05:17:02;20.30;99.90
29813;DHT22;16707;48.106;11.548;2022-07-21T05:19:30;20.30;99.90
29813;DHT22;16707;48.106;11.548;2022-07-21T05:21:59;20.30;99.90
29813;DHT22;16707;48.106;11.548;2022-07-21T05:24:26;20.30;99.90
29813;DHT22;16707;48.106;11.548;2022-07-21T05:26:53;20.40;99.90
29813;DHT22;16707;48.106;11.548;2022-07-21T05:29:26;20.40;99.90
29813;DHT22;16707;48.106;11.548;2022-07-21T05:31:59;20.60;99.90
29813;DHT22;16707;48.106;11.548;2022-07-21T05:34:27;20.70;99.90
29813;DHT22;16707;48.106;11.548;2022-07-21T05:36:55;20.80;99.90
29813;DHT22;16707;48.106;11.548;2022-07-21T05:39:29;21.40;99.90
29813;DHT22;16707;48.106;11.548;2022-07-21T05:41:57;21.60;99.90
29813;DHT22;16707;48.106;11.548;2022-07-21T05:44:27;22.30;99.90
29813;DHT22;16707;48.106;11.548;2022-07-21T05:46:55;22.60;99.90
29813;DHT22;16707;48.106;11.548;2022-07-21T05:49:24;23.00;99.90
29813;DHT22;16707;48.106;11.548;2022-07-21T05:51:54;23.10;99.90
29813;DHT22;16707;48.106;11.548;2022-07-21T05:54:23;23.10;99.90
29813;DHT22;16707;48.106;11.548;2022-07-21T05:56:50;22.90;99.90
29813;DHT22;16707;48.106;11.548;2022-07-21T05:59:20;22.80;99.90
29813;DHT22;16707;48.106;11.548;2022-07-21T06:01:50;22.70;99.90
29813;DHT22;16707;48.106;11.548;2022-07-21T06:04:20;23.00;99.90
29813;DHT22;16707;48.106;11.548;2022-07-21T06:06:48;22.80;99.90
29813;DHT22;16707;48.106;11.548;2022-07-21T06:09:15;22.90;99.90
29813;DHT22;16707;48.106;11.548;2022-07-21T06:11:44;22.80;99.90
29813;DHT22;16707;48.106;11.548;2022-07-21T06:14:11;22.90;99.90
29813;DHT22;16707;48.106;11.548;2022-07-21T06:16:38;23.10;99.90
29813;DHT22;16707;48.106;11.548;2022-07-21T06:19:06;22.90;99.90
29813;DHT22;16707;48.106;11.548;2022-07-21T06:21:33;22.90;99.90
29813;DHT22;16707;48.106;11.548;2022-07-21T06:24:21;23.00;99.90
29813;DHT22;16707;48.106;11.548;2022-07-21T06:26:55;23.10;99.90
29813;DHT22;16707;48.106;11.548;2022-07-21T06:29:27;23.00;99.90
29813;DHT22;16707;48.106;11.548;2022-07-21T06:31:54;23.20;99.90
29813;DHT22;16707;48.106;11.548;2022-07-21T06:34:22;24.10;99.90
29813;DHT22;16707;48.106;11.548;2022-07-21T06:36:49;23.90;99.90
29813;DHT22;16707;48.106;11.548;2022-07-21T06:39:18;23.60;99.90
29813;DHT22;16707;48.106;11.548;2022-07-21T06:41:45;23.30;99.90
29813;DHT22;16707;48.106;11.548;2022-07-21T06:44:18;23.00;99.90
29813;DHT22;16707;48.106;11.548;2022-07-21T06:46:46;22.70;99.90
29813;DHT22;16707;48.106;11.548;2022-07-21T06:49:13;22.60;99.90
29813;DHT22;16707;48.106;11.548;2022-07-21T06:51:40;22.50;99.90
29813;DHT22;16707;48.106;11.548;2022-07-21T06:54:10;22.60;99.90
29813;DHT22;16707;48.106;11.548;2022-07-21T06:56:38;22.70;99.90
29813;DHT22;16707;48.106;11.548;2022-07-21T06:59:06;22.90;99.90
29813;DHT22;16707;48.106;11.548;2022-07-21T07:01:33;23.00;99.90
29813;DHT22;16707;48.106;11.548;2022-07-21T07:04:01;23.10;99.90
29813;DHT22;16707;48.106;11.548;2022-07-21T07:06:28;23.10;99.90
29813;DHT22;16707;48.106;11.548;2022-07-21T07:08:56;23.20;99.90
29813;DHT22;16707;48.106;11.548;2022-07-21T07:11:23;23.00;99.90
29813;DHT22;16707;48.106;11.548;2022-07-21T07:13:51;22.80;99.90
29813;DHT22;16707;48.106;11.548;2022-07-21T07:16:19;22.90;99.90
29813;DHT22;16707;48.106;11.548;2022-07-21T07:18:46;23.20;99.90
29813;DHT22;16707;48.106;11.548;2022-07-21T07:21:13;23.20;99.90
29813;DHT22;16707;48.106;11.548;2022-07-21T07:23:43;23.10;99.90
29813;DHT22;16707;48.106;11.548;2022-07-21T07:26:10;23.10;99.90
29813;DHT22;16707;48.106;11.548;2022-07-21T07:28:43;23.30;99.90
29813;DHT22;16707;48.106;11.548;2022-07-21T07:31:11;23.30;99.90
29813;DHT22;16707;48.106;11.548;2022-07-21T07:33:39;23.50;99.90
29813;DHT22;16707;48.106;11.548;2022-07-21T07:36:09;23.60;99.90
29813;DHT22;16707;48.106;11.548;2022-07-21T07:38:39;23.80;99.90
29813;DHT22;16707;48.106;11.548;2022-07-21T07:41:09;23.70;99.90
29813;DHT22;16707;48.106;11.548;2022-07-21T07:43:36;24.10;99.90
29813;DHT22;16707;48.106;11.548;2022-07-21T07:46:11;24.10;99.90
29813;DHT22;16707;48.106;11.548;2022-07-21T07:48:39;24.30;99.90
29813;DHT22;16707;48.106;11.548;2022-07-21T07:51:11;24.30;99.10
29813;DHT22;16707;48.106;11.548;2022-07-21T07:53:39;23.90;99.90
29813;DHT22;16707;48.106;11.548;2022-07-21T07:56:09;23.80;99.90
29813;DHT22;16707;48.106;11.548;2022-07-21T07:58:38;23.70;99.70
29813;DHT22;16707;48.106;11.548;2022-07-21T08:01:05;23.40;99.90
29813;DHT22;16707;48.106;11.548;2022-07-21T08:03:38;23.20;99.90
29813;DHT22;16707;48.106;11.548;2022-07-21T08:06:11;23.20;99.90
29813;DHT22;16707;48.106;11.548;2022-07-21T08:08:38;23.10;99.90
29813;DHT22;16707;48.106;11.548;2022-07-21T08:11:06;23.20;99.90
29813;DHT22;16707;48.106;11.548;2022-07-21T08:13:41;23.20;99.90
29813;DHT22;16707;48.106;11.548;2022-07-21T08:16:13;23.30;99.90
29813;DHT22;16707;48.106;11.548;2022-07-21T08:18:45;23.50;99.90
29813;DHT22;16707;48.106;11.548;2022-07-21T08:21:12;23.40;99.90
29813;DHT22;16707;48.106;11.548;2022-07-21T08:23:40;23.40;99.90
29813;DHT22;16707;48.106;11.548;2022-07-21T08:26:10;23.40;99.90
29813;DHT22;16707;48.106;11.548;2022-07-21T08:28:37;23.50;99.90
29813;DHT22;16707;48.106;11.548;2022-07-21T08:33:32;23.10;99.90
29813;DHT22;16707;48.106;11.548;2022-07-21T08:36:04;23.00;99.90
29813;DHT22;16707;48.106;11.548;2022-07-21T08:38:38;22.80;99.90
29813;DHT22;16707;48.106;11.548;2022-07-21T08:41:11;22.50;99.90
29813;DHT22;16707;48.106;11.548;2022-07-21T08:43:41;22.50;99.90
29813;DHT22;16707;48.106;11.548;2022-07-21T08:46:14;22.30;99.90
29813;DHT22;16707;48.106;11.548;2022-07-21T08:48:42;22.30;99.90
29813;DHT22;16707;48.106;11.548;2022-07-21T08:51:13;22.30;99.90
29813;DHT22;16707;48.106;11.548;2022-07-21T08:53:43;22.20;99.90
29813;DHT22;16707;48.106;11.548;2022-07-21T08:56:11;22.30;99.90
29813;DHT22;16707;48.106;11.548;2022-07-21T08:58:38;22.30;99.90
29813;DHT22;16707;48.106;11.548;2022-07-21T09:01:10;22.30;99.90
29813;DHT22;16707;48.106;11.548;2022-07-21T09:03:37;22.20;99.90
29813;DHT22;16707;48.106;11.548;2022-07-21T09:06:14;22.20;99.90
29813;DHT22;16707;48.106;11.548;2022-07-21T09:08:44;22.20;99.90
29813;DHT22;16707;48.106;11.548;2022-07-21T09:11:14;22.10;99.90
29813;DHT22;16707;48.106;11.548;2022-07-21T09:13:44;22.10;99.90
29813;DHT22;16707;48.106;11.548;2022-07-21T09:16:12;22.10;99.90
29813;DHT22;16707;48.106;11.548;2022-07-21T09:18:48;22.20;99.90
29813;DHT22;16707;48.106;11.548;2022-07-21T09:21:17;22.30;99.90
29813;DHT22;16707;48.106;11.548;2022-07-21T09:23:46;22.30;99.90
29813;DHT22;16707;48.106;11.548;2022-07-21T09:26:17;22.30;99.90
29813;DHT22;16707;48.106;11.548;2022-07-21T09:28:46;22.30;99.90
29813;DHT22;16707;48.106;11.548;2022-07-21T09:31:14;22.20;99.90
29813;DHT22;16707;48.106;11.548;2022-07-21T09:33:44;22.30;99.90
29813;DHT22;16707;48.106;11.548;2022-07-21T09:36:15;22.20;99.90
29813;DHT22;16707;48.106;11.548;2022-07-21T09:38:49;22.30;99.90
29813;DHT22;16707;48.106;11.548;2022-07-21T09:41:20;22.20;99.90
29813;DHT22;16707;48.106;11.548;2022-07-21T09:43:52;22.10;99.90
29813;DHT22;16707;48.106;11.548;2022-07-21T09:46:21;22.00;99.90
29813;DHT22;16707;48.106;11.548;2022-07-21T09:48:53;22.00;99.90
29813;DHT22;16707;48.106;11.548;2022-07-21T09:51:26;21.80;99.90
29813;DHT22;16707;48.106;11.548;2022-07-21T09:53:57;21.80;99.90
29813;DHT22;16707;48.106;11.548;2022-07-21T09:56:31;21.70;99.90
29813;DHT22;16707;48.106;11.548;2022-07-21T09:59:01;21.70;99.90
29813;DHT22;16707;48.106;11.548;2022-07-21T10:01:30;21.50;99.90
29813;DHT22;16707;48.106;11.548;2022-07-21T10:03:59;21.40;99.90
29813;DHT22;16707;48.106;11.548;2022-07-21T10:06:37;21.30;99.90
29813;DHT22;16707;48.106;11.548;2022-07-21T10:09:09;21.30;99.90
29813;DHT22;16707;48.106;11.548;2022-07-21T10:11:39;21.10;99.90
29813;DHT22;16707;48.106;11.548;2022-07-21T10:14:09;21.10;99.90
29813;DHT22;16707;48.106;11.548;2022-07-21T10:16:37;21.10;99.90
29813;DHT22;16707;48.106;11.548;2022-07-21T10:19:09;21.20;99.90
29813;DHT22;16707;48.106;11.548;2022-07-21T10:21:48;21.10;99.90
29813;DHT22;16707;48.106;11.548;2022-07-21T10:24:19;21.30;99.90
29813;DHT22;16707;48.106;11.548;2022-07-21T10:27:04;21.20;99.90
29813;DHT22;16707;48.106;11.548;2022-07-21T10:30:03;21.40;99.90
29813;DHT22;16707;48.106;11.548;2022-07-21T10:32:33;21.30;99.90
29813;DHT22;16707;48.106;11.548;2022-07-21T10:35:23;21.30;99.90
29813;DHT22;16707;48.106;11.548;2022-07-21T10:37:56;21.50;99.90
29813;DHT22;16707;48.106;11.548;2022-07-21T10:40:40;21.40;99.90
29813;DHT22;16707;48.106;11.548;2022-07-21T10:43:38;21.10;99.90
29813;DHT22;16707;48.106;11.548;2022-07-21T10:46:35;21.20;99.90
29813;DHT22;16707;48.106;11.548;2022-07-21T10:49:09;21.30;99.90
29813;DHT22;16707;48.106;11.548;2022-07-21T10:51:38;21.80;99.90
29813;DHT22;16707;48.106;11.548;2022-07-21T10:54:34;21.90;99.90
29813;DHT22;16707;48.106;11.548;2022-07-21T10:57:25;22.10;99.90
29813;DHT22;16707;48.106;11.548;2022-07-21T11:00:16;22.10;99.90
29813;DHT22;16707;48.106;11.548;2022-07-21T11:02:46;22.10;99.90
29813;DHT22;16707;48.106;11.548;2022-07-21T11:05:15;22.30;99.90
29813;DHT22;16707;48.106;11.548;2022-07-21T11:08:10;22.40;99.90
29813;DHT22;16707;48.106;11.548;2022-07-21T11:10:41;22.60;99.90
29813;DHT22;16707;48.106;11.548;2022-07-21T11:13:09;22.60;99.90
29813;DHT22;16707;48.106;11.548;2022-07-21T11:15:56;23.00;99.90
29813;DHT22;16707;48.106;11.548;2022-07-21T11:18:26;23.20;99.90
29813;DHT22;16707;48.106;11.548;2022-07-21T11:21:14;23.50;99.90
29813;DHT22;16707;48.106;11.548;2022-07-21T11:23:44;23.50;99.90
29813;DHT22;16707;48.106;11.548;2022-07-21T11:26:15;23.20;99.90
29813;DHT22;16707;48.106;11.548;2022-07-21T11:28:43;23.00;99.90
29813;DHT22;16707;48.106;11.548;2022-07-21T11:31:15;22.80;99.90
29813;DHT22;16707;48.106;11.548;2022-07-21T11:33:47;22.90;99.90
29813;DHT22;16707;48.106;11.548;2022-07-21T11:36:27;22.90;99.90
29813;DHT22;16707;48.106;11.548;2022-07-21T11:39:01;22.80;99.90
29813;DHT22;16707;48.106;11.548;2022-07-21T11:41:33;22.80;99.90
29813;DHT22;16707;48.106;11.548;2022-07-21T11:44:01;22.70;99.90
29813;DHT22;16707;48.106;11.548;2022-07-21T11:46:49;22.80;99.90
29813;DHT22;16707;48.106;11.548;2022-07-21T11:49:18;22.60;99.90
29813;DHT22;16707;48.106;11.548;2022-07-21T11:51:50;22.80;99.90
29813;DHT22;16707;48.106;11.548;2022-07-21T11:54:26;23.00;99.90
29813;DHT22;16707;48.106;11.548;2022-07-21T11:56:56;22.80;99.90
29813;DHT22;16707;48.106;11.548;2022-07-21T11:59:24;22.90;99.90
29813;DHT22;16707;48.106;11.548;2022-07-21T12:01:57;23.00;99.90
29813;DHT22;16707;48.106;11.548;2022-07-21T12:04:47;22.90;99.90
29813;DHT22;16707;48.106;11.548;2022-07-21T12:07:19;23.00;99.90
29813;DHT22;16707;48.106;11.548;2022-07-21T12:09:52;23.00;99.90
29813;DHT22;16707;48.106;11.548;2022-07-21T12:12:35;23.20;99.90
29813;DHT22;16707;48.106;11.548;2022-07-21T12:15:11;23.10;99.90
29813;DHT22;16707;48.106;11.548;2022-07-21T12:17:41;23.00;99.90
29813;DHT22;16707;48.106;11.548;2022-07-21T12:20:24;23.20;99.90
29813;DHT22;16707;48.106;11.548;2022-07-21T12:22:59;23.30;99.90
29813;DHT22;16707;48.106;11.548;2022-07-21T12:25:33;23.30;99.90
29813;DHT22;16707;48.106;11.548;2022-07-21T12:28:07;23.20;99.90
29813;DHT22;16707;48.106;11.548;2022-07-21T12:30:36;23.40;99.90
29813;DHT22;16707;48.106;11.548;2022-07-21T12:33:07;23.60;99.90
29813;DHT22;16707;48.106;11.548;2022-07-21T12:35:38;23.80;99.90
29813;DHT22;16707;48.106;11.548;2022-07-21T12:38:08;24.00;99.90
29813;DHT22;16707;48.106;11.548;2022-07-21T12:40:39;24.10;99.90
29813;DHT22;16707;48.106;11.548;2022-07-21T12:43:11;24.10;99.90
29813;DHT22;16707;48.106;11.548;2022-07-21T12:45:52;23.90;99.90
29813;DHT22;16707;48.106;11.548;2022-07-21T12:48:22;23.50;99.90
29813;DHT22;16707;48.106;11.548;2022-07-21T12:50:58;23.70;99.90
29813;DHT22;16707;48.106;11.548;2022-07-21T12:53:31;23.70;99.90
29813;DHT22;16707;48.106;11.548;2022-07-21T12:56:00;23.90;99.50
29813;DHT22;16707;48.106;11.548;2022-07-21T12:58:29;24.20;98.40
29813;DHT22;16707;48.106;11.548;2022-07-21T13:00:57;24.30;97.40
29813;DHT22;16707;48.106;11.548;2022-07-21T13:03:27;24.40;97.30
29813;DHT22;16707;48.106;11.548;2022-07-21T13:05:56;24.50;95.60
29813;DHT22;16707;48.106;11.548;2022-07-21T13:08:23;24.40;95.90
29813;DHT22;16707;48.106;11.548;2022-07-21T13:10:53;25.00;94.50
29813;DHT22;16707;48.106;11.548;2022-07-21T13:13:20;25.50;91.90
29813;DHT22;16707;48.106;11.548;2022-07-21T13:15:49;25.90;90.10
29813;DHT22;16707;48.106;11.548;2022-07-21T13:18:16;26.10;87.10
29813;DHT22;16707;48.106;11.548;2022-07-21T13:20:43;26.10;86.10
29813;DHT22;16707;48.106;11.548;2022-07-21T13:23:13;25.90;85.70
29813;DHT22;16707;48.106;11.548;2022-07-21T13:25:43;25.50;87.70
29813;DHT22;16707;48.106;11.548;2022-07-21T13:28:19;25.60;88.40
29813;DHT22;16707;48.106;11.548;2022-07-21T13:30:53;25.70;86.70
29813;DHT22;16707;48.106;11.548;2022-07-21T13:33:20;25.80;87.40
29813;DHT22;16707;48.106;11.548;2022-07-21T13:35:50;25.70;86.70
29813;DHT22;16707;48.106;11.548;2022-07-21T13:38:17;25.90;87.10
29813;DHT22;16707;48.106;11.548;2022-07-21T13:40:46;26.00;85.40
29813;DHT22;16707;48.106;11.548;2022-07-21T13:43:13;26.10;84.90
29813;DHT22;16707;48.106;11.548;2022-07-21T13:45:42;26.10;85.00
29813;DHT22;16707;48.106;11.548;2022-07-21T13:48:13;25.80;85.80
29813;DHT22;16707;48.106;11.548;2022-07-21T13:50:43;25.90;86.30
29813;DHT22;16707;48.106;11.548;2022-07-21T13:53:11;25.80;86.30
29813;DHT22;16707;48.106;11.548;2022-07-21T13:55:38;25.60;88.90
29813;DHT22;16707;48.106;11.548;2022-07-21T13:58:05;25.50;89.20
29813;DHT22;16707;48.106;11.548;2022-07-21T14:00:35;25.70;88.00
29813;DHT22;16707;48.106;11.548;2022-07-21T14:03:02;25.60;87.70
29813;DHT22;16707;48.106;11.548;2022-07-21T14:05:31;25.70;88.90
29813;DHT22;16707;48.106;11.548;2022-07-21T14:08:01;25.90;87.40
29813;DHT22;16707;48.106;11.548;2022-07-21T14:10:28;25.70;88.40
29813;DHT22;16707;48.106;11.548;2022-07-21T14:12:58;25.60;89.30
29813;DHT22;16707;48.106;11.548;2022-07-21T14:15:39;25.90;89.50
29813;DHT22;16707;48.106;11.548;2022-07-21T14:18:06;26.10;86.50
29813;DHT22;16707;48.106;11.548;2022-07-21T14:20:35;26.40;85.90
29813;DHT22;16707;48.106;11.548;2022-07-21T14:23:02;26.20;85.10
29813;DHT22;16707;48.106;11.548;2022-07-21T14:25:29;26.40;85.50
29813;DHT22;16707;48.106;11.548;2022-07-21T14:27:57;26.50;86.50
29813;DHT22;16707;48.106;11.548;2022-07-21T14:30:28;27.40;81.70
29813;DHT22;16707;48.106;11.548;2022-07-21T14:32:56;27.40;76.50
29813;DHT22;16707;48.106;11.548;2022-07-21T14:35:23;27.20;75.90
29813;DHT22;16707;48.106;11.548;2022-07-21T14:37:54;27.10;76.80
29813;DHT22;16707;48.106;11.548;2022-07-21T14:40:22;26.80;75.90
29813;DHT22;16707;48.106;11.548;2022-07-21T14:42:50;26.80;76.30
29813;DHT22;16707;48.106;11.548;2022-07-21T14:45:19;26.70;77.30
29813;DHT22;16707;48.106;11.548;2022-07-21T14:47:49;26.80;76.10
29813;DHT22;16707;48.106;11.548;2022-07-21T14:50:18;26.90;75.20
29813;DHT22;16707;48.106;11.548;2022-07-21T14:52:48;27.10;72.60
29813;DHT22;16707;48.106;11.548;2022-07-21T14:55:17;27.10;71.90
29813;DHT22;16707;48.106;11.548;2022-07-21T14:57:46;26.80;71.50
29813;DHT22;16707;48.106;11.548;2022-07-21T15:00:13;27.00;73.40
29813;DHT22;16707;48.106;11.548;2022-07-21T15:02:48;27.20;72.20
29813;DHT22;16707;48.106;11.548;2022-07-21T15:05:18;27.70;71.40
29813;DHT22;16707;48.106;11.548;2022-07-21T15:07:48;27.50;69.80
29813;DHT22;16707;48.106;11.548;2022-07-21T15:10:21;27.50;70.10
29813;DHT22;16707;48.106;11.548;2022-07-21T15:12:48;27.70;68.90
29813;DHT22;16707;48.106;11.548;2022-07-21T15:15:15;27.60;67.80
29813;DHT22;16707;48.106;11.548;2022-07-21T15:17:42;27.60;67.60
29813;DHT22;16707;48.106;11.548;2022-07-21T15:20:10;27.20;68.80
29813;DHT22;16707;48.106;11.548;2022-07-21T15:22:38;27.20;70.50
29813;DHT22;16707;48.106;11.548;2022-07-21T15:25:07;27.20;71.00
29813;DHT22;16707;48.106;11.548;2022-07-21T15:27:39;27.20;71.50
29813;DHT22;16707;48.106;11.548;2022-07-21T15:30:10;27.10;71.40
29813;DHT22;16707;48.106;11.548;2022-07-21T15:32:46;27.20;72.30
29813;DHT22;16707;48.106;11.548;2022-07-21T15:35:20;27.20;72.70
29813;DHT22;16707;48.106;11.548;2022-07-21T15:37:47;27.40;70.70
29813;DHT22;16707;48.106;11.548;2022-07-21T15:40:14;27.20;70.80